sensor_id;sensor_type;location;lat;lon;timestamp;pressure;altitude;pressure_sealevel;temperature;humidity
60246;BME280;46107;53.356;-1.524;2024-02-26T00:01:55;97752.34;;;3.59;69.04
60246;BME280;46107;53.356;-1.524;2024-02-26T00:04:24;97763.43;;;4.09;66.69
60246;BME280;46107;53.356;-1.524;2024-02-26T00:06:53;97766.76;;;3.23;69.48
60246;BME280;46107;53.356;-1.524;2024-02-26T00:09:22;97770.12;;;3.53;67.88
60246;BME280;46107;53.356;-1.524;2024-02-26T00:11:49;97772.08;;;3.67;68.01
60246;BME280;46107;53.356;-1.524;2024-02-26T00:14:16;97778.21;;;3.54;67.39
60246;BME280;46107;53.356;-1.524;2024-02-26T00:16:44;97784.67;;;3.45;69.15
60246;BME280;46107;53.356;-1.524;2024-02-26T00:19:11;97788.63;;;2.96;71.01
60246;BME280;46107;53.356;-1.524;2024-02-26T00:21:40;97790.82;;;2.70;71.64
60246;BME280;46107;53.356;-1.524;2024-02-26T00:24:08;97788.95;;;3.60;69.25
60246;BME280;46107;53.356;-1.524;2024-02-26T00:26:37;97787.40;;;3.02;70.27
60246;BME280;46107;53.356;-1.524;2024-02-26T00:29:06;97805.24;;;2.59;73.49
60246;BME280;46107;53.356;-1.524;2024-02-26T00:31:33;97805.97;;;3.44;71.84
60246;BME280;46107;53.356;-1.524;2024-02-26T00:34:02;97803.86;;;3.06;69.64
60246;BME280;46107;53.356;-1.524;2024-02-26T00:36:30;97809.10;;;2.53;73.69
60246;BME280;46107;53.356;-1.524;2024-02-26T00:38:58;97814.94;;;2.39;73.34
60246;BME280;46107;53.356;-1.524;2024-02-26T00:41:37;97808.81;;;2.97;73.14
60246;BME280;46107;53.356;-1.524;2024-02-26T00:44:04;97823.04;;;2.94;74.58
60246;BME280;46107;53.356;-1.524;2024-02-26T00:46:32;97818.79;;;2.91;73.32
60246;BME280;46107;53.356;-1.524;2024-02-26T00:49:01;97817.47;;;2.28;73.86
60246;BME280;46107;53.356;-1.524;2024-02-26T00:51:30;97828.18;;;1.66;76.26
60246;BME280;46107;53.356;-1.524;2024-02-26T00:53:57;97826.12;;;2.88;72.67
60246;BME280;46107;53.356;-1.524;2024-02-26T00:56:27;97828.31;;;2.72;71.30
60246;BME280;46107;53.356;-1.524;2024-02-26T00:58:54;97839.78;;;2.57;72.94
60246;BME280;46107;53.356;-1.524;2024-02-26T01:01:21;97842.83;;;2.40;73.74
60246;BME280;46107;53.356;-1.524;2024-02-26T01:03:49;97846.03;;;2.69;71.56
60246;BME280;46107;53.356;-1.524;2024-02-26T01:06:18;97849.96;;;3.08;71.46
60246;BME280;46107;53.356;-1.524;2024-02-26T01:08:45;97854.85;;;2.40;72.11
60246;BME280;46107;53.356;-1.524;2024-02-26T01:11:17;97850.70;;;2.15;72.79
60246;BME280;46107;53.356;-1.524;2024-02-26T01:13:44;97863.55;;;2.38;73.81
60246;BME280;46107;53.356;-1.524;2024-02-26T01:16:11;97867.08;;;1.71;75.44
60246;BME280;46107;53.356;-1.524;2024-02-26T01:18:38;97873.51;;;2.26;75.68
60246;BME280;46107;53.356;-1.524;2024-02-26T01:21:06;97875.48;;;2.55;73.88
60246;BME280;46107;53.356;-1.524;2024-02-26T01:23:33;97874.68;;;2.27;73.18
60246;BME280;46107;53.356;-1.524;2024-02-26T01:26:07;97882.35;;;2.41;74.57
60246;BME280;46107;53.356;-1.524;2024-02-26T01:28:36;97882.64;;;2.13;75.96
60246;BME280;46107;53.356;-1.524;2024-02-26T01:31:06;97889.34;;;1.82;76.66
60246;BME280;46107;53.356;-1.524;2024-02-26T01:33:37;97898.08;;;2.32;73.92
60246;BME280;46107;53.356;-1.524;2024-02-26T01:36:04;97904.84;;;2.37;74.40
60246;BME280;46107;53.356;-1.524;2024-02-26T01:38:35;97905.13;;;2.35;74.39
60246;BME280;46107;53.356;-1.524;2024-02-26T01:41:02;97915.36;;;2.00;76.72
60246;BME280;46107;53.356;-1.524;2024-02-26T01:43:30;97920.32;;;2.38;75.60
60246;BME280;46107;53.356;-1.524;2024-02-26T01:46:00;97921.44;;;2.37;74.92
60246;BME280;46107;53.356;-1.524;2024-02-26T01:48:28;97922.51;;;3.49;71.29
60246;BME280;46107;53.356;-1.524;2024-02-26T01:50:57;97924.60;;;3.11;69.32
60246;BME280;46107;53.356;-1.524;2024-02-26T01:53:26;97933.39;;;2.94;70.37
60246;BME280;46107;53.356;-1.524;2024-02-26T01:55:57;97933.76;;;3.07;70.29
60246;BME280;46107;53.356;-1.524;2024-02-26T01:58:25;97929.59;;;1.78;73.76
60246;BME280;46107;53.356;-1.524;2024-02-26T02:00:53;97941.67;;;2.31;72.69
60246;BME280;46107;53.356;-1.524;2024-02-26T02:03:23;97942.32;;;3.06;70.69
60246;BME280;46107;53.356;-1.524;2024-02-26T02:05:58;97944.62;;;2.89;69.75
60246;BME280;46107;53.356;-1.524;2024-02-26T02:08:26;97944.24;;;2.20;72.26
60246;BME280;46107;53.356;-1.524;2024-02-26T02:10:55;97944.26;;;2.19;74.81
60246;BME280;46107;53.356;-1.524;2024-02-26T02:13:24;97950.69;;;1.69;76.70
60246;BME280;46107;53.356;-1.524;2024-02-26T02:15:52;97955.89;;;1.66;76.66
60246;BME280;46107;53.356;-1.524;2024-02-26T02:18:21;97956.93;;;2.31;75.98
60246;BME280;46107;53.356;-1.524;2024-02-26T02:20:48;97962.41;;;2.06;75.93
60246;BME280;46107;53.356;-1.524;2024-02-26T02:23:15;97961.06;;;2.25;75.15
60246;BME280;46107;53.356;-1.524;2024-02-26T02:25:44;97969.36;;;2.25;74.77
60246;BME280;46107;53.356;-1.524;2024-02-26T02:28:13;97970.95;;;2.57;73.39
60246;BME280;46107;53.356;-1.524;2024-02-26T02:30:40;97976.02;;;2.05;73.74
60246;BME280;46107;53.356;-1.524;2024-02-26T02:33:12;97981.68;;;3.06;71.34
60246;BME280;46107;53.356;-1.524;2024-02-26T02:35:39;97985.47;;;1.86;74.56
60246;BME280;46107;53.356;-1.524;2024-02-26T02:38:08;97992.87;;;1.55;76.33
60246;BME280;46107;53.356;-1.524;2024-02-26T02:40:35;97992.79;;;1.63;75.95
60246;BME280;46107;53.356;-1.524;2024-02-26T02:43:03;97999.46;;;2.05;74.18
60246;BME280;46107;53.356;-1.524;2024-02-26T02:45:34;97997.02;;;2.96;72.40
60246;BME280;46107;53.356;-1.524;2024-02-26T02:48:02;98008.77;;;2.45;72.39
60246;BME280;46107;53.356;-1.524;2024-02-26T02:50:35;98011.07;;;2.58;73.77
60246;BME280;46107;53.356;-1.524;2024-02-26T02:53:02;98013.49;;;1.84;73.88
60246;BME280;46107;53.356;-1.524;2024-02-26T02:55:30;98020.46;;;1.86;73.05
60246;BME280;46107;53.356;-1.524;2024-02-26T02:57:57;98020.76;;;2.37;71.25
60246;BME280;46107;53.356;-1.524;2024-02-26T03:00:25;98030.04;;;3.31;68.55
60246;BME280;46107;53.356;-1.524;2024-02-26T03:02:54;98030.37;;;1.81;71.37
60246;BME280;46107;53.356;-1.524;2024-02-26T03:05:21;98036.99;;;2.88;69.95
60246;BME280;46107;53.356;-1.524;2024-02-26T03:07:49;98040.60;;;2.29;71.35
60246;BME280;46107;53.356;-1.524;2024-02-26T03:10:16;98045.36;;;1.88;72.29
60246;BME280;46107;53.356;-1.524;2024-02-26T03:12:45;98050.75;;;1.69;73.73
60246;BME280;46107;53.356;-1.524;2024-02-26T03:15:13;98047.53;;;2.54;70.84
60246;BME280;46107;53.356;-1.524;2024-02-26T03:17:41;98048.02;;;2.94;68.42
60246;BME280;46107;53.356;-1.524;2024-02-26T03:20:09;98055.40;;;2.63;69.47
60246;BME280;46107;53.356;-1.524;2024-02-26T03:22:38;98061.44;;;1.92;69.85
60246;BME280;46107;53.356;-1.524;2024-02-26T03:25:08;98066.05;;;1.86;71.83
60246;BME280;46107;53.356;-1.524;2024-02-26T03:27:36;98063.77;;;1.97;72.13
60246;BME280;46107;53.356;-1.524;2024-02-26T03:30:04;98064.30;;;2.58;70.15
60246;BME280;46107;53.356;-1.524;2024-02-26T03:32:33;98058.34;;;3.09;66.79
60246;BME280;46107;53.356;-1.524;2024-02-26T03:35:01;98068.86;;;1.90;73.00
60246;BME280;46107;53.356;-1.524;2024-02-26T03:37:29;98068.96;;;2.47;70.11
60246;BME280;46107;53.356;-1.524;2024-02-26T03:39:56;98074.54;;;2.69;68.46
60246;BME280;46107;53.356;-1.524;2024-02-26T03:42:23;98082.14;;;2.01;72.87
60246;BME280;46107;53.356;-1.524;2024-02-26T03:44:52;98085.35;;;2.63;70.76
60246;BME280;46107;53.356;-1.524;2024-02-26T03:47:19;98091.72;;;2.17;71.88
60246;BME280;46107;53.356;-1.524;2024-02-26T03:49:47;98096.16;;;2.15;72.58
60246;BME280;46107;53.356;-1.524;2024-02-26T03:52:13;98100.08;;;2.26;70.23
60246;BME280;46107;53.356;-1.524;2024-02-26T03:54:41;98103.41;;;2.54;70.54
60246;BME280;46107;53.356;-1.524;2024-02-26T03:57:10;98111.02;;;2.34;71.64
60246;BME280;46107;53.356;-1.524;2024-02-26T03:59:43;98115.42;;;2.35;73.27
60246;BME280;46107;53.356;-1.524;2024-02-26T04:02:10;98114.80;;;2.73;70.19
60246;BME280;46107;53.356;-1.524;2024-02-26T04:04:38;98115.07;;;2.69;70.05
60246;BME280;46107;53.356;-1.524;2024-02-26T04:07:08;98124.08;;;2.28;71.90
60246;BME280;46107;53.356;-1.524;2024-02-26T04:09:38;98129.32;;;2.21;73.43
60246;BME280;46107;53.356;-1.524;2024-02-26T04:12:06;98134.82;;;2.70;70.77
60246;BME280;46107;53.356;-1.524;2024-02-26T04:14:35;98138.11;;;1.80;74.45
60246;BME280;46107;53.356;-1.524;2024-02-26T04:17:03;98145.03;;;2.21;73.65
60246;BME280;46107;53.356;-1.524;2024-02-26T04:19:30;98155.52;;;2.91;71.87
60246;BME280;46107;53.356;-1.524;2024-02-26T04:21:59;98156.92;;;2.34;72.03
60246;BME280;46107;53.356;-1.524;2024-02-26T04:24:27;98163.14;;;2.51;72.38
60246;BME280;46107;53.356;-1.524;2024-02-26T04:26:54;98164.00;;;2.40;71.90
60246;BME280;46107;53.356;-1.524;2024-02-26T04:29:23;98177.05;;;2.78;70.58
60246;BME280;46107;53.356;-1.524;2024-02-26T04:31:50;98174.17;;;3.18;67.92
60246;BME280;46107;53.356;-1.524;2024-02-26T04:34:19;98186.26;;;3.10;69.12
60246;BME280;46107;53.356;-1.524;2024-02-26T04:36:50;98188.46;;;1.97;71.60
60246;BME280;46107;53.356;-1.524;2024-02-26T04:39:20;98193.26;;;2.79;71.45
60246;BME280;46107;53.356;-1.524;2024-02-26T04:41:47;98202.84;;;3.22;71.17
60246;BME280;46107;53.356;-1.524;2024-02-26T04:44:15;98195.18;;;2.69;71.05
60246;BME280;46107;53.356;-1.524;2024-02-26T04:46:43;98201.79;;;2.37;71.89
60246;BME280;46107;53.356;-1.524;2024-02-26T04:49:10;98201.36;;;2.46;72.78
60246;BME280;46107;53.356;-1.524;2024-02-26T04:51:38;98210.62;;;3.01;69.63
60246;BME280;46107;53.356;-1.524;2024-02-26T08:03:33;98559.95;;;1.95;77.71
60246;BME280;46107;53.356;-1.524;2024-02-26T08:03:46;98558.98;;;2.04;77.88
60246;BME280;46107;53.356;-1.524;2024-02-26T08:07:38;98564.27;;;1.66;77.26
60246;BME280;46107;53.356;-1.524;2024-02-26T08:10:55;98563.60;;;1.91;76.72
60246;BME280;46107;53.356;-1.524;2024-02-26T08:14:05;98567.57;;;1.39;79.10
60246;BME280;46107;53.356;-1.524;2024-02-26T08:17:05;98567.89;;;2.14;75.57
60246;BME280;46107;53.356;-1.524;2024-02-26T08:19:48;98579.46;;;1.46;75.47
60246;BME280;46107;53.356;-1.524;2024-02-26T08:23:03;98582.98;;;1.82;77.99
60246;BME280;46107;53.356;-1.524;2024-02-26T08:26:08;98591.77;;;1.42;77.08
60246;BME280;46107;53.356;-1.524;2024-02-26T08:28:56;98591.46;;;1.61;77.38
